<?xml version="1.0" encoding="UTF-8"?>
<gpx version="1.0" creator="Gaggle https://github.com/geeksville/Gaggle" xmlns:xsi="http://www.w3.org/2001/XMLSchema-instance" xmlns="http://www.topografix.com/GPX/1/0" xsi:schemaLocation="http://www.topografix.com/GPX/1/0 http://www.topografix.com/GPX/1/0/gpx.xsd">
<trk>
	<name>Jorgev's flight</name>
	<desc>
	Pilot name:	Jorgev
	Pilot ID:	
	Glider type:	Rush 2
	</desc>
	<trkseg>
		<trkpt lat="42.874267" lon="-5.373948">
			<ele>1624.000000</ele>
		<time>2015-12-09T03:49:56Z</time>
		</trkpt>

		<trkpt lat="42.874247" lon="-5.374042">
			<ele>1615.000000</ele>
		<time>2015-12-09T03:50:18Z</time>
		</trkpt>

		<trkpt lat="42.874276" lon="-5.374036">
			<ele>1615.000000</ele>
		<time>2015-12-09T03:52:05Z</time>
		</trkpt>

		<trkpt lat="42.874286" lon="-5.374002">
			<ele>1611.000000</ele>
		<time>2015-12-09T03:54:11Z</time>
		</trkpt>

		<trkpt lat="42.874259" lon="-5.374023">
			<ele>1614.000000</ele>
		<time>2015-12-09T03:54:41Z</time>
		</trkpt>

		<trkpt lat="42.874257" lon="-5.374065">
			<ele>1614.000000</ele>
		<time>2015-12-09T03:55:17Z</time>
		</trkpt>

		<trkpt lat="42.874226" lon="-5.374057">
			<ele>1614.000000</ele>
		<time>2015-12-09T03:55:21Z</time>
		</trkpt>

		<trkpt lat="42.874223" lon="-5.374094">
			<ele>1613.000000</ele>
		<time>2015-12-09T03:56:59Z</time>
		</trkpt>

		<trkpt lat="42.874185" lon="-5.374103">
			<ele>1609.000000</ele>
		<time>2015-12-09T03:58:04Z</time>
		</trkpt>

		<trkpt lat="42.874120" lon="-5.374077">
			<ele>1607.000000</ele>
		<time>2015-12-09T03:58:08Z</time>
		</trkpt>

		<trkpt lat="42.874046" lon="-5.373978">
			<ele>1597.000000</ele>
		<time>2015-12-09T03:58:12Z</time>
		</trkpt>

		<trkpt lat="42.873829" lon="-5.373757">
			<ele>1595.000000</ele>
		<time>2015-12-09T03:58:15Z</time>
		</trkpt>

		<trkpt lat="42.873692" lon="-5.373562">
			<ele>1594.000000</ele>
		<time>2015-12-09T03:58:18Z</time>
		</trkpt>

		<trkpt lat="42.873545" lon="-5.373375">
			<ele>1593.000000</ele>
		<time>2015-12-09T03:58:21Z</time>
		</trkpt>

		<trkpt lat="42.873413" lon="-5.373178">
			<ele>1590.000000</ele>
		<time>2015-12-09T03:58:24Z</time>
		</trkpt>

		<trkpt lat="42.873375" lon="-5.372857">
			<ele>1589.000000</ele>
		<time>2015-12-09T03:58:27Z</time>
		</trkpt>

		<trkpt lat="42.873475" lon="-5.372572">
			<ele>1589.000000</ele>
		<time>2015-12-09T03:58:30Z</time>
		</trkpt>

		<trkpt lat="42.873589" lon="-5.372306">
			<ele>1588.000000</ele>
		<time>2015-12-09T03:58:33Z</time>
		</trkpt>

		<trkpt lat="42.873684" lon="-5.372023">
			<ele>1585.000000</ele>
		<time>2015-12-09T03:58:36Z</time>
		</trkpt>

		<trkpt lat="42.873754" lon="-5.371753">
			<ele>1582.000000</ele>
		<time>2015-12-09T03:58:39Z</time>
		</trkpt>

		<trkpt lat="42.873779" lon="-5.371468">
			<ele>1583.000000</ele>
		<time>2015-12-09T03:58:42Z</time>
		</trkpt>

		<trkpt lat="42.873721" lon="-5.371196">
			<ele>1584.000000</ele>
		<time>2015-12-09T03:58:45Z</time>
		</trkpt>

		<trkpt lat="42.873645" lon="-5.370947">
			<ele>1577.000000</ele>
		<time>2015-12-09T03:58:48Z</time>
		</trkpt>

		<trkpt lat="42.873504" lon="-5.370709">
			<ele>1572.000000</ele>
		<time>2015-12-09T03:58:51Z</time>
		</trkpt>

		<trkpt lat="42.873312" lon="-5.370586">
			<ele>1566.000000</ele>
		<time>2015-12-09T03:58:54Z</time>
		</trkpt>

		<trkpt lat="42.873065" lon="-5.370574">
			<ele>1560.000000</ele>
		<time>2015-12-09T03:58:57Z</time>
		</trkpt>

		<trkpt lat="42.872773" lon="-5.370800">
			<ele>1554.000000</ele>
		<time>2015-12-09T03:59:01Z</time>
		</trkpt>

		<trkpt lat="42.872497" lon="-5.371014">
			<ele>1550.000000</ele>
		<time>2015-12-09T03:59:05Z</time>
		</trkpt>

		<trkpt lat="42.872279" lon="-5.370951">
			<ele>1548.000000</ele>
		<time>2015-12-09T03:59:08Z</time>
		</trkpt>

		<trkpt lat="42.872158" lon="-5.370678">
			<ele>1544.000000</ele>
		<time>2015-12-09T03:59:11Z</time>
		</trkpt>

		<trkpt lat="42.872118" lon="-5.370361">
			<ele>1543.000000</ele>
		<time>2015-12-09T03:59:14Z</time>
		</trkpt>

		<trkpt lat="42.872134" lon="-5.370082">
			<ele>1540.000000</ele>
		<time>2015-12-09T03:59:17Z</time>
		</trkpt>

		<trkpt lat="42.872188" lon="-5.369771">
			<ele>1538.000000</ele>
		<time>2015-12-09T03:59:20Z</time>
		</trkpt>

		<trkpt lat="42.872195" lon="-5.369504">
			<ele>1534.000000</ele>
		<time>2015-12-09T03:59:23Z</time>
		</trkpt>

		<trkpt lat="42.872110" lon="-5.369216">
			<ele>1531.000000</ele>
		<time>2015-12-09T03:59:26Z</time>
		</trkpt>

		<trkpt lat="42.871981" lon="-5.369004">
			<ele>1528.000000</ele>
		<time>2015-12-09T03:59:29Z</time>
		</trkpt>

		<trkpt lat="42.871841" lon="-5.368799">
			<ele>1527.000000</ele>
		<time>2015-12-09T03:59:32Z</time>
		</trkpt>

		<trkpt lat="42.871713" lon="-5.368629">
			<ele>1524.000000</ele>
		<time>2015-12-09T03:59:35Z</time>
		</trkpt>

		<trkpt lat="42.871564" lon="-5.368402">
			<ele>1519.000000</ele>
		<time>2015-12-09T03:59:38Z</time>
		</trkpt>

		<trkpt lat="42.871509" lon="-5.368109">
			<ele>1516.000000</ele>
		<time>2015-12-09T03:59:41Z</time>
		</trkpt>

	</trkseg>
</trk>
</gpx>

